Time;durP1;ratioP1;P1;durP2;ratioP2;P2;SDS_P1;SDS_P2;PMS_P1;PMS_P2;Temp;Humidity;BMP_temperature;BMP_pressure;BME280_temperature;BME280_humidity;BME280_pressure;Samples;Min_cycle;Max_cycle;Signal;HPM_P1;HPM_P2
2022/01/27 00:00:42;;;;;;;64.83;29.07;;;3.40;1.00;;;;;;4984675;28;20296;-66
2022/01/27 00:03:19;;;;;;;67.83;29.83;;;3.50;1.00;;;;;;4999312;28;20224;-66
2022/01/27 00:06:00;;;;;;;62.30;26.93;;;3.40;1.00;;;;;;4972374;28;20197;-66
2022/01/27 00:08:41;;;;;;;69.10;31.40;;;3.40;99.90;;;;;;4975439;28;20285;-66
2022/01/27 00:11:14;;;;;;;67.77;28.97;;;3.50;99.90;;;;;;4985497;28;20189;-66
2022/01/27 00:13:44;;;;;;;67.13;31.63;;;3.40;99.90;;;;;;5004768;28;20208;-66
2022/01/27 00:16:17;;;;;;;66.13;32.60;;;3.50;99.90;;;;;;4968286;28;20253;-66
2022/01/27 00:18:49;;;;;;;66.27;30.07;;;3.50;99.90;;;;;;4964835;28;20726;-66
2022/01/27 00:21:22;;;;;;;56.93;28.13;;;3.50;99.90;;;;;;4947605;28;20198;-66
2022/01/27 00:23:49;;;;;;;57.80;27.33;;;3.50;99.90;;;;;;4946431;28;20207;-66
2022/01/27 00:26:17;;;;;;;60.63;29.67;;;3.50;38.50;;;;;;4943357;28;20209;-66
2022/01/27 00:28:46;;;;;;;55.00;27.90;;;3.50;77.50;;;;;;4951044;28;20206;-64
2022/01/27 00:31:17;;;;;;;57.40;27.17;;;3.60;1.00;;;;;;4922592;28;20274;-65
2022/01/27 00:33:49;;;;;;;59.43;28.63;;;3.60;1.00;;;;;;4947150;28;20268;-65
2022/01/27 00:36:16;;;;;;;60.57;28.30;;;3.60;1.00;;;;;;4930504;28;20203;-65
2022/01/27 00:38:44;;;;;;;55.63;26.87;;;3.60;1.00;;;;;;4945509;28;20269;-65
2022/01/27 00:41:19;;;;;;;54.63;28.20;;;3.60;1.00;;;;;;4935694;28;20566;-65
2022/01/27 00:43:48;;;;;;;54.83;28.20;;;3.60;1.00;;;;;;4964330;28;20233;-66
2022/01/27 00:46:17;;;;;;;52.73;29.10;;;3.60;1.00;;;;;;4961579;28;20226;-66
2022/01/27 00:48:50;;;;;;;49.63;24.47;;;3.60;1.00;;;;;;4950950;28;20203;-65
2022/01/27 00:51:22;;;;;;;51.93;25.60;;;3.60;1.00;;;;;;4959116;28;20194;-65
2022/01/27 00:54:00;;;;;;;52.30;26.47;;;3.60;1.00;;;;;;4940749;28;20710;-66
2022/01/27 00:56:41;;;;;;;47.47;26.73;;;3.70;1.00;;;;;;4944130;28;20207;-65
2022/01/27 01:01:46;;;;;;;54.97;28.17;;;3.60;1.00;;;;;;4944573;28;20187;-65
2022/01/27 01:04:13;;;;;;;53.63;29.37;;;3.60;1.00;;;;;;4943390;28;20691;-65
2022/01/27 01:06:44;;;;;;;50.93;27.13;;;3.60;1.00;;;;;;4951703;28;20236;-65
2022/01/27 01:14:40;;;;;;;47.63;24.50;;;3.60;1.00;;;;;;4967180;28;20667;-65
2022/01/27 01:33:23;;;;;;;54.43;30.80;;;3.50;99.90;;;;;;4926072;28;20256;-65
2022/01/27 01:36:00;;;;;;;48.40;27.07;;;3.50;99.90;;;;;;4963484;28;20194;-65
2022/01/27 01:38:30;;;;;;;53.60;30.13;;;3.50;99.90;;;;;;4961090;28;20300;-65
2022/01/27 01:40:58;;;;;;;51.30;28.30;;;3.50;99.90;;;;;;4979616;28;20220;-65
2022/01/27 01:43:25;;;;;;;50.30;26.93;;;3.50;99.90;;;;;;4964995;28;20249;-65
2022/01/27 01:45:52;;;;;;;53.50;29.77;;;3.40;99.90;;;;;;4952677;28;20261;-65
2022/01/27 01:48:19;;;;;;;52.50;28.53;;;3.40;99.90;;;;;;4967769;28;20201;-65
2022/01/27 01:50:47;;;;;;;46.43;25.00;;;3.40;99.90;;;;;;4971285;28;20202;-65
2022/01/27 01:53:17;;;;;;;39.93;22.07;;;3.40;99.90;;;;;;4960765;28;20241;-65
2022/01/27 01:55:44;;;;;;;42.70;23.93;;;3.40;99.90;;;;;;4983832;28;20732;-64
2022/01/27 01:58:14;;;;;;;43.23;24.97;;;3.40;99.90;;;;;;4969582;28;20201;-65
2022/01/27 02:00:43;;;;;;;44.70;24.13;;;3.40;99.90;;;;;;4983277;28;20256;-65
2022/01/27 02:03:13;;;;;;;43.07;24.27;;;3.40;99.90;;;;;;4980765;28;20200;-65
2022/01/27 02:05:47;;;;;;;46.13;23.87;;;3.40;99.90;;;;;;4969779;28;20217;-65
2022/01/27 02:19:23;;;;;;;41.43;24.43;;;3.40;99.90;;;;;;4964322;28;20267;-65
2022/01/27 02:21:57;;;;;;;39.50;22.97;;;3.40;99.90;;;;;;4960403;28;20209;-65
2022/01/27 02:24:29;;;;;;;41.57;24.27;;;3.40;99.90;;;;;;4953513;28;20681;-64
2022/01/27 02:27:01;;;;;;;39.93;19.50;;;3.40;99.90;;;;;;4954504;28;20213;-65
2022/01/27 02:29:28;;;;;;;44.00;24.80;;;3.30;99.90;;;;;;4953680;28;20217;-65
2022/01/27 02:31:58;;;;;;;41.73;23.47;;;3.40;99.90;;;;;;4965229;28;20622;-65
2022/01/27 02:34:28;;;;;;;41.30;22.53;;;3.40;99.90;;;;;;4969342;28;20214;-65
2022/01/27 02:36:58;;;;;;;43.67;24.17;;;3.40;99.90;;;;;;4970516;28;20193;-65
2022/01/27 02:39:26;;;;;;;42.80;23.30;;;3.40;99.90;;;;;;4976213;28;20229;-65
2022/01/27 02:42:01;;;;;;;43.70;25.67;;;3.40;99.90;;;;;;4980444;28;20221;-64
2022/01/27 02:44:34;;;;;;;43.23;24.70;;;3.40;99.90;;;;;;4969696;28;20634;-64
2022/01/27 02:47:01;;;;;;;44.83;25.60;;;3.40;99.90;;;;;;4978874;28;20205;-64
2022/01/27 02:49:28;;;;;;;47.77;23.80;;;3.40;99.90;;;;;;4954297;28;20265;-65
2022/01/27 02:51:58;;;;;;;38.13;20.73;;;3.40;99.90;;;;;;4962220;28;20744;-65
2022/01/27 02:54:25;;;;;;;42.50;23.20;;;3.40;99.90;;;;;;4960977;28;20217;-65
2022/01/27 02:57:11;;;;;;;39.23;22.10;;;3.40;99.90;;;;;;4957976;28;20255;-65
2022/01/27 02:59:38;;;;;;;42.83;22.30;;;3.40;99.90;;;;;;4964793;28;20593;-65
2022/01/27 03:02:08;;;;;;;43.13;23.83;;;3.40;99.90;;;;;;4962307;28;20205;-65
2022/01/27 03:04:36;;;;;;;45.97;23.20;;;3.40;99.90;;;;;;4961983;28;20667;-66
2022/01/27 03:07:06;;;;;;;48.67;23.27;;;3.40;99.90;;;;;;4967333;28;20212;-65
2022/01/27 03:09:34;;;;;;;42.43;23.20;;;3.40;99.90;;;;;;4953973;28;20303;-65
2022/01/27 03:12:11;;;;;;;45.03;23.83;;;3.40;99.90;;;;;;4952645;28;20217;-65
2022/01/27 03:14:41;;;;;;;43.47;22.83;;;3.40;99.90;;;;;;4936892;28;20237;-65
2022/01/27 03:17:09;;;;;;;44.97;22.00;;;3.40;99.90;;;;;;4967054;28;20897;-66
2022/01/27 03:19:37;;;;;;;46.37;24.33;;;3.50;99.90;;;;;;4969808;28;20217;-65
2022/01/27 03:22:05;;;;;;;34.40;19.07;;;3.50;99.90;;;;;;4977827;28;20214;-65
2022/01/27 03:24:33;;;;;;;41.70;23.60;;;3.50;99.90;;;;;;4983672;28;20198;-65
2022/01/27 03:27:03;;;;;;;43.60;23.80;;;3.50;99.90;;;;;;4973058;28;20550;-65
2022/01/27 03:29:32;;;;;;;41.67;22.73;;;3.50;99.90;;;;;;4965132;28;20285;-65
2022/01/27 03:31:59;;;;;;;39.20;21.60;;;3.40;99.90;;;;;;4982727;28;20248;-65
2022/01/27 03:34:29;;;;;;;44.23;23.53;;;3.50;99.90;;;;;;4956490;28;20217;-66
2022/01/27 03:36:56;;;;;;;47.17;22.57;;;3.50;99.90;;;;;;4955090;28;20226;-64
2022/01/27 03:39:23;;;;;;;43.60;22.73;;;3.50;99.90;;;;;;4950002;28;20685;-64
2022/01/27 03:41:56;;;;;;;49.20;23.77;;;3.50;99.90;;;;;;4984493;28;20202;-65
2022/01/27 03:44:28;;;;;;;35.30;19.17;;;3.50;99.90;;;;;;4950298;28;20244;-65
2022/01/27 03:46:55;;;;;;;42.80;21.43;;;3.50;99.90;;;;;;4964566;28;21132;-65
2022/01/27 03:49:23;;;;;;;38.57;21.10;;;3.50;99.90;;;;;;4965634;28;20256;-65
2022/01/27 03:51:50;;;;;;;43.20;23.07;;;3.50;99.90;;;;;;4963229;28;20222;-65
2022/01/27 03:54:18;;;;;;;39.87;21.23;;;3.50;99.90;;;;;;4979429;28;20222;-65
2022/01/27 03:56:45;;;;;;;40.77;22.07;;;3.50;99.90;;;;;;4981350;28;20252;-65
2022/01/27 03:59:15;;;;;;;42.90;23.87;;;3.50;99.90;;;;;;4981327;28;20190;-65
2022/01/27 04:01:41;;;;;;;42.70;21.97;;;3.50;99.90;;;;;;4983367;28;20193;-65
2022/01/27 04:04:13;;;;;;;37.17;20.63;;;3.50;99.90;;;;;;4965390;28;20245;-65
2022/01/27 04:06:41;;;;;;;42.67;21.63;;;3.50;99.90;;;;;;4965623;28;20202;-68
2022/01/27 04:09:11;;;;;;;40.43;22.20;;;3.60;99.90;;;;;;4981521;28;20813;-65
2022/01/27 04:11:39;;;;;;;42.30;22.70;;;3.60;99.90;;;;;;4969758;28;20198;-65
2022/01/27 04:14:07;;;;;;;42.27;22.37;;;3.60;99.90;;;;;;4967551;28;20281;-65
2022/01/27 04:16:34;;;;;;;44.23;23.27;;;3.60;99.90;;;;;;4965068;28;20245;-65
2022/01/27 04:19:02;;;;;;;33.97;19.73;;;3.60;99.90;;;;;;4962186;28;20281;-65
2022/01/27 04:21:29;;;;;;;41.83;23.00;;;3.60;99.90;;;;;;4985758;28;20226;-65
2022/01/27 04:23:56;;;;;;;38.93;21.57;;;3.60;99.90;;;;;;4973437;28;20289;-65
2022/01/27 04:26:33;;;;;;;46.07;25.20;;;3.60;99.90;;;;;;4979589;28;20301;-66
2022/01/27 04:29:02;;;;;;;34.60;19.97;;;3.60;99.90;;;;;;4982674;28;20228;-66
2022/01/27 04:31:32;;;;;;;34.10;21.40;;;3.60;99.90;;;;;;4968101;28;20211;-68
2022/01/27 04:34:01;;;;;;;43.90;21.13;;;3.60;99.90;;;;;;4963930;28;20221;-66
2022/01/27 04:36:34;;;;;;;38.20;21.67;;;3.60;99.90;;;;;;4965642;28;20233;-65
2022/01/27 04:39:19;;;;;;;42.83;23.73;;;3.60;99.90;;;;;;4965246;28;20232;-65
2022/01/27 04:42:31;;;;;;;40.33;22.10;;;3.60;99.90;;;;;;4983569;28;20608;-65
2022/01/27 04:44:49;;;;;;;37.60;20.40;;;3.60;99.90;;;;;;4964976;28;20210;-65
2022/01/27 04:47:24;;;;;;;39.60;21.67;;;3.60;99.90;;;;;;4965271;28;20795;-65
2022/01/27 04:49:53;;;;;;;40.53;22.00;;;3.70;99.90;;;;;;4969650;28;20272;-65
2022/01/27 04:52:23;;;;;;;38.50;21.03;;;3.70;99.90;;;;;;4978037;28;20202;-65
2022/01/27 04:57:23;;;;;;;38.03;19.53;;;3.70;99.90;;;;;;4985740;28;20670;-65
2022/01/27 04:59:52;;;;;;;40.80;21.00;;;3.70;99.90;;;;;;4981693;28;20204;-66
2022/01/27 05:02:40;;;;;;;36.87;20.13;;;3.70;99.90;;;;;;4981231;28;20313;-66
2022/01/27 05:05:08;;;;;;;39.47;20.77;;;3.70;99.90;;;;;;4949822;28;20206;-65
2022/01/27 05:07:56;;;;;;;39.43;21.23;;;3.70;99.90;;;;;;4983043;28;20206;-67
2022/01/27 05:10:27;;;;;;;34.83;19.67;;;3.80;99.90;;;;;;4954441;28;20201;-65
2022/01/27 05:13:05;;;;;;;41.27;21.47;;;3.80;99.90;;;;;;4964645;28;20293;-65
2022/01/27 05:15:34;;;;;;;40.40;22.10;;;3.80;99.90;;;;;;4981337;28;20229;-66
2022/01/27 05:18:04;;;;;;;35.90;21.97;;;3.80;99.90;;;;;;4969069;28;20206;-65
2022/01/27 05:20:30;;;;;;;40.13;22.03;;;3.80;99.90;;;;;;4966745;28;20545;-66
2022/01/27 05:22:57;;;;;;;41.90;21.00;;;3.90;99.90;;;;;;4968581;28;20198;-66
2022/01/27 05:25:24;;;;;;;36.63;18.80;;;3.90;99.90;;;;;;4970785;28;20214;-66
2022/01/27 05:27:51;;;;;;;40.57;21.87;;;4.00;99.90;;;;;;4980223;28;20290;-65
2022/01/27 05:30:18;;;;;;;34.00;19.80;;;4.00;99.90;;;;;;4980021;28;20210;-65
2022/01/27 05:32:45;;;;;;;37.27;20.40;;;4.00;99.90;;;;;;4981376;28;20225;-66
2022/01/27 05:35:14;;;;;;;34.80;19.07;;;4.00;99.90;;;;;;4964138;28;20286;-66
2022/01/27 05:37:41;;;;;;;38.60;20.83;;;4.10;99.90;;;;;;4962904;28;20218;-65
2022/01/27 05:40:09;;;;;;;35.90;20.53;;;4.10;99.90;;;;;;4962027;28;20963;-65
2022/01/27 05:42:36;;;;;;;36.63;20.77;;;4.10;99.90;;;;;;4981463;28;20616;-66
2022/01/27 05:45:03;;;;;;;38.63;21.90;;;4.10;99.90;;;;;;4967843;28;20198;-65
2022/01/27 05:47:30;;;;;;;43.87;25.00;;;4.20;99.90;;;;;;4960658;28;20561;-66
2022/01/27 05:49:57;;;;;;;43.63;26.97;;;4.20;99.90;;;;;;4969975;28;20272;-65
2022/01/27 05:52:24;;;;;;;46.83;25.97;;;4.20;99.90;;;;;;4969994;28;20237;-66
2022/01/27 05:54:53;;;;;;;49.43;27.33;;;4.20;99.90;;;;;;4966030;28;20230;-65
2022/01/27 05:57:20;;;;;;;47.90;26.67;;;4.20;99.90;;;;;;4969863;28;20940;-66
2022/01/27 05:59:48;;;;;;;49.90;23.67;;;4.20;99.90;;;;;;4959743;28;20189;-65
2022/01/27 06:02:17;;;;;;;38.17;20.37;;;4.30;99.90;;;;;;4981222;28;20202;-66
2022/01/27 06:04:44;;;;;;;38.17;21.77;;;4.20;99.90;;;;;;4966486;28;20316;-66
2022/01/27 06:07:12;;;;;;;36.83;19.27;;;4.20;99.90;;;;;;4978645;28;20279;-65
2022/01/27 06:09:39;;;;;;;33.97;20.00;;;4.30;99.90;;;;;;4963657;28;20229;-65
2022/01/27 06:12:08;;;;;;;35.43;20.20;;;4.30;99.90;;;;;;4959626;28;20259;-65
2022/01/27 06:14:37;;;;;;;31.50;16.90;;;4.30;99.90;;;;;;4979329;28;20230;-65
2022/01/27 06:17:04;;;;;;;37.07;20.07;;;4.30;99.90;;;;;;4955249;28;22264;-65
2022/01/27 06:19:32;;;;;;;38.20;19.63;;;4.30;99.90;;;;;;4963634;28;20205;-65
2022/01/27 06:21:58;;;;;;;36.03;17.63;;;4.40;99.90;;;;;;4943348;28;20209;-65
2022/01/27 06:24:28;;;;;;;32.53;18.23;;;4.40;99.90;;;;;;4962319;28;20662;-65
2022/01/27 06:26:56;;;;;;;30.40;16.10;;;4.50;99.90;;;;;;4950697;28;20268;-65
2022/01/27 06:29:23;;;;;;;30.03;16.97;;;4.50;99.90;;;;;;4944556;28;20721;-65
2022/01/27 06:31:49;;;;;;;33.67;17.50;;;4.50;99.90;;;;;;4962139;28;20193;-65
2022/01/27 06:34:16;;;;;;;31.73;18.30;;;4.50;99.90;;;;;;4952151;28;20230;-66
2022/01/27 06:36:46;;;;;;;33.10;17.53;;;4.60;99.90;;;;;;4970810;28;20289;-65
2022/01/27 06:39:13;;;;;;;32.07;18.47;;;4.60;99.90;;;;;;4962975;28;20202;-65
2022/01/27 06:41:47;;;;;;;30.97;16.70;;;4.60;99.90;;;;;;4952518;28;20198;-65
2022/01/27 06:44:15;;;;;;;31.40;17.20;;;4.60;99.90;;;;;;4981335;28;20372;-65
2022/01/27 06:46:42;;;;;;;29.13;17.13;;;4.70;99.90;;;;;;4970209;28;20197;-67
2022/01/27 06:49:16;;;;;;;36.60;18.30;;;4.70;99.90;;;;;;4964399;28;20209;-65
2022/01/27 06:51:44;;;;;;;34.00;18.63;;;4.70;99.90;;;;;;4965456;28;20240;-66
2022/01/27 06:54:16;;;;;;;35.37;18.63;;;4.70;99.90;;;;;;4972965;28;20203;-65
2022/01/27 06:56:45;;;;;;;31.57;17.80;;;4.70;99.90;;;;;;4984470;28;20225;-65
2022/01/27 06:59:12;;;;;;;28.90;16.67;;;4.70;99.90;;;;;;4967511;28;20206;-65
2022/01/27 07:01:39;;;;;;;35.60;17.40;;;4.70;99.90;;;;;;4983142;28;20282;-65
2022/01/27 07:04:09;;;;;;;33.63;18.67;;;4.80;99.90;;;;;;4970462;28;20206;-65
2022/01/27 07:06:36;;;;;;;31.37;17.80;;;4.80;99.90;;;;;;4951937;28;20294;-66
2022/01/27 07:09:03;;;;;;;33.17;18.20;;;4.80;99.90;;;;;;4965323;28;20619;-65
2022/01/27 07:11:32;;;;;;;30.20;17.93;;;4.90;99.90;;;;;;4969038;28;20504;-66
2022/01/27 07:14:02;;;;;;;30.90;18.47;;;4.90;99.90;;;;;;4965293;28;20226;-66
2022/01/27 07:16:33;;;;;;;30.83;18.17;;;4.90;99.90;;;;;;4964847;28;20277;-66
2022/01/27 07:19:02;;;;;;;29.83;16.80;;;4.90;99.90;;;;;;4968129;28;20201;-65
2022/01/27 07:21:29;;;;;;;36.77;18.60;;;4.90;99.90;;;;;;4974654;28;20293;-65
2022/01/27 07:23:56;;;;;;;29.93;18.27;;;4.90;99.90;;;;;;4952841;28;20246;-66
2022/01/27 07:26:27;;;;;;;35.70;17.90;;;4.80;99.90;;;;;;4947847;28;20201;-65
2022/01/27 07:28:58;;;;;;;30.70;18.03;;;4.90;99.90;;;;;;4969666;28;20194;-65
2022/01/27 07:31:27;;;;;;;30.77;17.00;;;4.90;99.90;;;;;;4975244;28;20213;-66
2022/01/27 07:33:58;;;;;;;33.87;17.63;;;4.90;99.90;;;;;;4973957;28;20190;-66
2022/01/27 07:36:28;;;;;;;32.63;17.30;;;4.90;99.90;;;;;;4984722;28;20193;-66
2022/01/27 07:38:55;;;;;;;30.17;18.50;;;4.90;99.90;;;;;;4967453;28;20669;-65
2022/01/27 07:41:22;;;;;;;31.87;17.50;;;4.90;1.00;;;;;;4948723;28;20273;-66
2022/01/27 07:43:49;;;;;;;35.20;17.93;;;4.90;1.00;;;;;;4984235;28;20224;-65
2022/01/27 07:46:16;;;;;;;32.07;19.13;;;4.90;1.00;;;;;;4949700;28;20209;-65
2022/01/27 07:48:43;;;;;;;33.43;19.80;;;4.90;1.00;;;;;;4940897;28;20621;-65
2022/01/27 07:51:12;;;;;;;35.13;18.57;;;4.90;1.00;;;;;;4966198;28;20221;-65
2022/01/27 07:53:42;;;;;;;38.03;17.93;;;4.90;1.00;;;;;;4982861;28;20273;-65
2022/01/27 07:56:28;;;;;;;34.03;18.83;;;4.90;1.00;;;;;;4975928;28;20281;-66
2022/01/27 07:58:55;;;;;;;38.83;19.60;;;4.90;1.00;;;;;;4962192;28;20208;-65
2022/01/27 08:01:25;;;;;;;29.87;17.63;;;4.90;1.00;;;;;;4968479;28;20675;-66
2022/01/27 08:03:52;;;;;;;30.13;16.93;;;4.90;1.00;;;;;;4971488;28;20722;-65
2022/01/27 08:06:21;;;;;;;38.03;19.67;;;4.80;1.00;;;;;;4947167;28;20209;-66
2022/01/27 08:08:50;;;;;;;37.20;19.13;;;4.80;1.00;;;;;;4963802;28;20289;-66
2022/01/27 08:11:20;;;;;;;38.60;20.10;;;4.70;53.50;;;;;;4985107;28;20229;-66
2022/01/27 08:13:47;;;;;;;37.97;21.57;;;4.80;99.90;;;;;;4966054;28;20320;-66
2022/01/27 08:16:14;;;;;;;37.57;20.57;;;4.80;99.90;;;;;;4944867;28;20227;-66
2022/01/27 08:18:45;;;;;;;41.30;20.80;;;4.80;99.90;;;;;;4981131;28;20193;-66
2022/01/27 08:21:12;;;;;;;40.63;18.93;;;4.80;99.90;;;;;;4965456;28;20293;-65
2022/01/27 08:23:43;;;;;;;41.53;21.43;;;4.80;99.90;;;;;;4981280;28;20193;-66
2022/01/27 08:26:13;;;;;;;40.60;20.80;;;4.80;99.90;;;;;;4981920;28;20296;-64
2022/01/27 08:28:54;;;;;;;41.87;21.77;;;4.80;99.90;;;;;;4969418;28;20292;-67
2022/01/27 08:31:22;;;;;;;37.97;21.00;;;4.80;99.90;;;;;;4967703;28;20208;-66
2022/01/27 08:33:49;;;;;;;36.60;20.20;;;4.80;99.90;;;;;;4981133;28;20204;-65
2022/01/27 08:36:17;;;;;;;38.47;21.93;;;4.80;1.00;;;;;;4964544;28;20225;-64
2022/01/27 08:38:44;;;;;;;41.73;21.30;;;4.80;1.00;;;;;;4977048;28;20249;-66
2022/01/27 08:41:11;;;;;;;41.73;21.93;;;4.80;1.00;;;;;;4946974;28;20621;-65
2022/01/27 08:43:38;;;;;;;44.73;22.13;;;4.80;99.90;;;;;;4948144;28;20226;-66
2022/01/27 08:46:05;;;;;;;37.50;20.40;;;4.70;99.90;;;;;;4953033;28;20206;-65
2022/01/27 08:48:38;;;;;;;38.97;22.10;;;4.70;1.00;;;;;;4969201;28;20195;-66
2022/01/27 08:51:10;;;;;;;43.80;24.07;;;4.70;1.00;;;;;;4967216;28;20254;-65
2022/01/27 08:53:48;;;;;;;46.47;23.67;;;4.70;1.00;;;;;;4981615;28;20206;-67
2022/01/27 08:56:17;;;;;;;42.47;21.70;;;4.70;99.90;;;;;;4970001;28;20217;-66
2022/01/27 08:58:44;;;;;;;44.13;23.80;;;4.80;99.90;;;;;;4966182;28;20206;-67
2022/01/27 09:01:11;;;;;;;46.20;23.30;;;4.80;99.90;;;;;;4951952;28;20233;-65
2022/01/27 09:03:39;;;;;;;46.90;22.40;;;4.80;99.90;;;;;;4963671;28;20202;-66
2022/01/27 09:06:28;;;;;;;44.27;22.00;;;4.80;99.90;;;;;;4952397;28;20284;-66
2022/01/27 09:08:57;;;;;;;46.13;22.43;;;4.80;1.00;;;;;;4980638;28;20193;-66
2022/01/27 09:11:28;;;;;;;42.83;22.87;;;4.70;1.00;;;;;;4949569;28;20252;-65
2022/01/27 09:13:58;;;;;;;41.47;21.07;;;4.80;1.00;;;;;;4968829;28;20234;-65
2022/01/27 09:16:31;;;;;;;40.00;21.37;;;4.80;1.00;;;;;;4964754;28;20218;-66
2022/01/27 09:19:25;;;;;;;41.03;21.97;;;4.80;1.00;;;;;;4970984;28;20863;-66
2022/01/27 09:21:55;;;;;;;38.40;21.07;;;4.80;1.00;;;;;;4971632;28;20265;-65
2022/01/27 09:27:21;;;;;;;43.10;21.57;;;4.90;1.00;;;;;;4963246;28;20201;-66
2022/01/27 09:29:57;;;;;;;41.30;22.00;;;4.80;23.50;;;;;;4967286;28;20302;-67
2022/01/27 09:32:26;;;;;;;35.83;20.30;;;4.90;1.00;;;;;;4963526;28;20205;-65
2022/01/27 09:35:14;;;;;;;40.40;22.13;;;4.90;1.00;;;;;;4980966;28;20288;-66
2022/01/27 09:37:44;;;;;;;34.13;20.00;;;4.90;1.00;;;;;;4964777;28;20215;-65
2022/01/27 09:40:12;;;;;;;36.73;21.63;;;5.00;1.00;;;;;;4975579;28;20190;-65
2022/01/27 09:42:50;;;;;;;40.00;21.50;;;5.00;1.00;;;;;;4969348;28;20265;-66
2022/01/27 09:45:18;;;;;;;40.00;20.93;;;5.00;1.00;;;;;;4959672;28;20197;-65
2022/01/27 09:47:55;;;;;;;36.07;21.53;;;5.00;1.00;;;;;;4968558;28;20226;-66
2022/01/27 09:50:47;;;;;;;38.83;22.07;;;5.10;1.00;;;;;;4966182;28;20741;-65
2022/01/27 09:53:16;;;;;;;36.20;21.27;;;5.10;1.00;;;;;;4955240;28;20208;-64
2022/01/27 09:55:44;;;;;;;40.30;21.87;;;5.10;99.90;;;;;;4973774;28;20202;-65
2022/01/27 09:58:11;;;;;;;38.33;21.50;;;5.10;99.90;;;;;;4956983;28;20194;-64
2022/01/27 10:00:38;;;;;;;35.60;20.90;;;5.10;99.90;;;;;;4963874;28;20205;-63
2022/01/27 10:03:08;;;;;;;38.00;20.47;;;5.10;29.20;;;;;;4956979;28;20210;-65
2022/01/27 10:05:37;;;;;;;35.63;21.60;;;5.20;1.00;;;;;;4964866;28;20277;-65
2022/01/27 10:08:10;;;;;;;41.40;22.63;;;5.20;94.60;;;;;;4959178;28;20215;-66
2022/01/27 10:11:15;;;;;;;39.53;21.67;;;5.20;99.90;;;;;;4963605;28;20237;-64
2022/01/27 10:13:46;;;;;;;32.60;20.00;;;5.30;99.90;;;;;;4961477;28;20197;-65
2022/01/27 10:16:34;;;;;;;35.17;21.53;;;5.30;99.90;;;;;;4966857;28;20205;-65
2022/01/27 10:19:08;;;;;;;36.23;21.00;;;5.30;1.00;;;;;;4977848;28;20186;-65
2022/01/27 10:21:36;;;;;;;33.07;20.57;;;5.30;1.00;;;;;;4975814;28;20202;-65
2022/01/27 10:24:26;;;;;;;32.60;21.00;;;5.30;1.00;;;;;;4963104;28;20197;-64
2022/01/27 10:27:24;;;;;;;30.83;19.70;;;5.30;1.00;;;;;;4980577;28;20197;-64
2022/01/27 10:32:41;;;;;;;33.17;19.63;;;5.40;36.40;;;;;;4977186;28;20217;-64
2022/01/27 10:35:11;;;;;;;28.63;18.53;;;5.40;1.00;;;;;;4968371;28;20656;-64
2022/01/27 10:37:56;;;;;;;30.63;19.57;;;5.40;1.00;;;;;;4963558;28;20716;-64
2022/01/27 10:40:39;;;;;;;31.97;19.70;;;5.40;1.00;;;;;;4975085;28;20201;-65
2022/01/27 10:43:19;;;;;;;28.53;19.30;;;5.50;10.60;;;;;;4962263;28;20873;-64
2022/01/27 10:46:10;;;;;;;31.33;19.87;;;5.50;5.50;;;;;;4963909;28;20614;-66
2022/01/27 10:48:51;;;;;;;27.13;18.90;;;5.60;99.90;;;;;;4966399;28;20701;-64
2022/01/27 10:51:25;;;;;;;32.97;19.07;;;5.60;99.90;;;;;;4976937;28;20720;-64
2022/01/27 10:56:39;;;;;;;30.87;20.57;;;5.70;99.90;;;;;;4966605;28;20229;-64
2022/01/27 10:59:13;;;;;;;31.50;18.27;;;5.80;99.90;;;;;;4962568;28;20200;-65
2022/01/27 11:01:42;;;;;;;29.80;19.20;;;5.80;16.50;;;;;;4962542;28;20661;-64
2022/01/27 11:04:16;;;;;;;26.87;17.77;;;5.80;99.10;;;;;;4975840;28;20194;-65
2022/01/27 11:06:58;;;;;;;26.07;17.53;;;5.90;1.00;;;;;;4977046;28;20213;-65
2022/01/27 11:09:33;;;;;;;32.20;20.17;;;5.80;1.00;;;;;;4975240;28;20732;-65
2022/01/27 11:12:06;;;;;;;28.07;19.00;;;5.80;1.00;;;;;;4976243;28;20208;-65
2022/01/27 11:14:36;;;;;;;25.77;18.60;;;5.70;1.00;;;;;;4947431;28;20728;-64
2022/01/27 11:17:17;;;;;;;27.90;19.00;;;5.70;36.70;;;;;;4947623;28;20206;-65
2022/01/27 11:27:50;;;;;;;30.33;21.93;;;5.70;99.90;;;;;;4944128;28;20423;-65
2022/01/27 11:30:23;;;;;;;28.90;19.27;;;5.70;99.90;;;;;;4948442;28;20198;-65
2022/01/27 11:33:03;;;;;;;25.27;17.97;;;5.80;1.00;;;;;;4964414;28;20207;-65
2022/01/27 11:36:04;;;;;;;28.27;17.80;;;5.90;1.00;;;;;;4948542;28;20214;-66
2022/01/27 11:38:31;;;;;;;29.37;18.77;;;5.80;1.00;;;;;;4964599;28;20261;-65
2022/01/27 11:41:01;;;;;;;25.17;18.03;;;5.80;1.00;;;;;;4961169;28;20245;-64
2022/01/27 11:43:35;;;;;;;26.87;19.57;;;5.80;1.00;;;;;;4963317;28;20214;-65
2022/01/27 11:46:20;;;;;;;27.83;20.20;;;5.80;1.00;;;;;;4961205;28;20206;-64
2022/01/27 11:48:47;;;;;;;27.80;19.30;;;5.90;1.00;;;;;;4963256;28;20250;-65
2022/01/27 11:51:15;;;;;;;27.03;18.57;;;5.90;8.20;;;;;;4947505;28;20249;-65
2022/01/27 11:53:49;;;;;;;28.23;20.63;;;5.90;1.00;;;;;;4961120;28;20211;-65
2022/01/27 11:56:26;;;;;;;30.53;22.27;;;5.90;1.00;;;;;;4947792;28;20290;-64
2022/01/27 11:59:08;;;;;;;25.90;18.50;;;6.00;26.90;;;;;;4961013;28;20238;-64
2022/01/27 12:01:38;;;;;;;25.50;19.43;;;6.00;1.00;;;;;;4948723;28;20198;-64
2022/01/27 12:04:06;;;;;;;26.80;19.60;;;6.00;1.00;;;;;;4943513;28;20566;-65
2022/01/27 12:06:43;;;;;;;24.77;18.43;;;6.00;1.00;;;;;;4930078;28;20268;-65
2022/01/27 12:09:19;;;;;;;27.17;19.37;;;6.00;1.00;;;;;;4945684;28;22028;-65
2022/01/27 12:11:51;;;;;;;26.20;18.93;;;6.00;1.00;;;;;;4947341;28;20257;-65
2022/01/27 12:14:26;;;;;;;27.83;19.13;;;6.10;1.00;;;;;;4946190;28;20249;-64
2022/01/27 12:17:09;;;;;;;23.53;16.73;;;6.10;1.00;;;;;;4941804;28;20306;-64
2022/01/27 12:19:56;;;;;;;23.80;17.20;;;6.10;1.00;;;;;;4944580;28;21184;-66
2022/01/27 12:30:10;;;;;;;23.80;17.57;;;6.10;1.00;;;;;;4941723;28;20233;-64
2022/01/27 12:32:37;;;;;;;24.37;18.07;;;6.20;1.00;;;;;;4949790;28;20199;-64
2022/01/27 12:35:13;;;;;;;26.37;20.40;;;6.20;71.50;;;;;;4945862;28;20637;-64
2022/01/27 12:37:46;;;;;;;21.07;15.83;;;6.20;23.30;;;;;;4961639;28;20357;-65
2022/01/27 12:40:19;;;;;;;22.40;17.50;;;6.10;17.30;;;;;;4962583;28;20675;-67
2022/01/27 12:42:55;;;;;;;23.50;16.60;;;6.20;27.40;;;;;;4929098;28;20285;-66
2022/01/27 12:45:30;;;;;;;22.03;17.13;;;6.10;1.00;;;;;;4936061;28;20285;-66
2022/01/27 12:59:58;;;;;;;25.63;19.60;;;6.20;99.90;;;;;;4953604;28;20725;-66
2022/01/27 13:02:29;;;;;;;22.20;17.23;;;6.20;1.00;;;;;;4945588;28;20301;-66
2022/01/27 13:04:58;;;;;;;23.67;19.17;;;6.20;1.00;;;;;;4945923;28;20225;-65
2022/01/27 13:07:29;;;;;;;25.57;19.70;;;6.20;1.00;;;;;;4961530;28;20678;-65
2022/01/27 13:10:06;;;;;;;25.53;19.87;;;6.30;1.00;;;;;;4961348;28;20309;-65
2022/01/27 13:12:40;;;;;;;28.87;21.40;;;6.30;1.00;;;;;;4960545;28;20197;-64
2022/01/27 13:15:14;;;;;;;30.30;21.80;;;6.30;1.00;;;;;;4956757;28;20253;-64
2022/01/27 13:17:49;;;;;;;30.23;22.67;;;6.30;1.00;;;;;;4956115;28;20264;-64
2022/01/27 13:20:44;;;;;;;26.80;20.40;;;6.30;1.00;;;;;;4957750;28;20222;-64
2022/01/27 13:26:00;;;;;;;30.80;23.50;;;6.40;1.00;;;;;;4941428;28;20313;-64
2022/01/27 13:28:34;;;;;;;34.40;22.57;;;6.40;1.00;;;;;;4958019;28;20234;-64
2022/01/27 13:31:10;;;;;;;30.40;22.73;;;6.40;1.00;;;;;;4957012;28;20198;-64
2022/01/27 13:33:43;;;;;;;28.93;22.43;;;6.40;1.00;;;;;;4957426;28;20193;-64
2022/01/27 13:36:17;;;;;;;36.73;27.67;;;6.50;1.00;;;;;;4940458;28;20222;-64
2022/01/27 13:39:02;;;;;;;37.37;27.83;;;6.50;1.00;;;;;;4925647;28;20267;-64
2022/01/27 13:41:36;;;;;;;39.07;26.53;;;6.50;1.00;;;;;;4927242;28;20198;-64
2022/01/27 13:44:04;;;;;;;172.60;49.93;;;6.50;1.00;;;;;;4938294;28;20250;-64
2022/01/27 13:46:36;;;;;;;64.83;34.70;;;6.50;1.00;;;;;;4940599;28;20675;-64
2022/01/27 13:49:08;;;;;;;49.30;34.37;;;6.60;42.90;;;;;;4943495;28;20296;-65
2022/01/27 13:51:57;;;;;;;47.43;34.23;;;6.60;40.90;;;;;;4942409;28;20226;-64
2022/01/27 13:54:30;;;;;;;48.40;33.60;;;6.60;24.30;;;;;;4937304;28;20230;-65
2022/01/27 13:57:10;;;;;;;42.80;32.50;;;6.70;1.00;;;;;;4939185;28;20263;-65
2022/01/27 13:59:57;;;;;;;50.77;35.50;;;6.70;1.00;;;;;;4943133;28;20642;-64
2022/01/27 14:02:31;;;;;;;44.07;33.17;;;6.70;1.00;;;;;;4952652;28;20223;-63
2022/01/27 14:05:02;;;;;;;52.40;34.60;;;6.70;1.00;;;;;;4953022;28;20210;-64
2022/01/27 14:07:33;;;;;;;43.53;33.40;;;6.70;1.00;;;;;;4941338;28;20262;-64
2022/01/27 14:10:12;;;;;;;41.87;31.27;;;6.80;1.00;;;;;;4940672;28;20273;-64
2022/01/27 14:12:45;;;;;;;43.20;32.57;;;6.80;1.00;;;;;;4941182;28;20728;-64
2022/01/27 14:15:39;;;;;;;41.63;32.00;;;6.80;1.00;;;;;;4952086;28;20737;-64
2022/01/27 14:18:10;;;;;;;43.93;31.93;;;6.80;1.00;;;;;;4964915;28;20220;-66
2022/01/27 14:20:56;;;;;;;41.83;32.00;;;6.80;1.00;;;;;;4965634;28;20221;-64